Terminal Aerodrome Forecast
Issued by NWS Charleston, WV

Current Version | Previous Version | Text Only | Print | Product List | Glossary Off
Versions: 1 2 3 4 5 6 7 8 9 10 11 12 13 14 15 16 17 18 19 20 21 22 23

000
FTUS41 KRLX 240900 AAA
TAFPKB
TAF AMD
KPKB 240911Z 2409/2506 31005KT 3SM -SN BR BKN003 OVC020
      TEMPO 2409/2411 1SM -SN OVC002
     FM241100 31007KT 4SM -SN OVC004
     FM241300 26006KT P6SM BKN008
     FM241600 26006KT P6SM BKN015
     FM241800 24008KT P6SM BKN030=

USA.gov is the U.S. government's official web portal to all federal, state and local government web resources and services.